Startpagina
METAR-TAF:

METAR-TAF

Vliegvelden :

South Big Horn County Airport

Greybull, Wyoming, Verenigde Staten

breedte: 44-30-57N, lengte: 108-04-33W, hoogte: 1199 m

Actueel weer

Dit bericht is 28 minuten geleden gemaakt, om 15:53 UTC
Wind 19 kt uit het noordwesten met uitschieters tot 22 kt
Temperatuur 13°C
Vochtigheid 33%
Druk 1024 hPa
Zicht: 16.1 km
Onbewolkt

METAR: KGEY 181553Z AUTO 32019G22KT 10SM CLR 13/M03 A3023 RMK AO2 SLP234 T01281033

Tijdstip: 10:21 (16:21 UTC)


TAF: ontbreekt

Waarnemingen en weersverwachtingen van meer dan 4000 vliegvelden (METAR en TAF).

De beschikbare stations zijn de gele en rode punten op de kaart.

Ga met uw muis naar het station om de naam te zien.

Klik dan om waarnemingen en weersverwachtingen te zien.

kaart wijzigen: klik op de groene knoppen met een zwart kruis om in te zoomen, op de groene knop met een streepje om uit te zoomen of op de groene pijlen voor aangrenzende kaarten.


METAR-TAF: